sensor_id;sensor_type;location;lat;lon;timestamp;P1;durP1;ratioP1;P2;durP2;ratioP2
76377;SDS011;65200;49.500;8.654;2024-03-06T00:01:04;5.40;;;3.83;;
76377;SDS011;65200;49.500;8.654;2024-03-06T00:03:33;4.00;;;3.45;;
76377;SDS011;65200;49.500;8.654;2024-03-06T00:06:00;4.35;;;3.88;;
76377;SDS011;65200;49.500;8.654;2024-03-06T00:08:28;3.85;;;3.20;;
76377;SDS011;65200;49.500;8.654;2024-03-06T00:10:57;4.50;;;3.40;;
76377;SDS011;65200;49.500;8.654;2024-03-06T00:13:25;6.13;;;3.53;;
76377;SDS011;65200;49.500;8.654;2024-03-06T00:15:52;5.03;;;3.60;;
76377;SDS011;65200;49.500;8.654;2024-03-06T00:18:20;5.50;;;3.63;;
76377;SDS011;65200;49.500;8.654;2024-03-06T00:20:47;4.35;;;3.70;;
76377;SDS011;65200;49.500;8.654;2024-03-06T00:23:15;5.50;;;3.50;;
76377;SDS011;65200;49.500;8.654;2024-03-06T00:25:43;5.40;;;3.38;;
76377;SDS011;65200;49.500;8.654;2024-03-06T00:28:12;4.32;;;3.92;;
76377;SDS011;65200;49.500;8.654;2024-03-06T00:30:40;3.92;;;2.95;;
76377;SDS011;65200;49.500;8.654;2024-03-06T00:33:08;9.73;;;4.72;;
76377;SDS011;65200;49.500;8.654;2024-03-06T00:35:35;8.45;;;4.22;;
76377;SDS011;65200;49.500;8.654;2024-03-06T00:38:03;9.65;;;3.60;;
76377;SDS011;65200;49.500;8.654;2024-03-06T00:40:31;6.30;;;3.78;;
76377;SDS011;65200;49.500;8.654;2024-03-06T00:42:59;6.07;;;4.15;;
76377;SDS011;65200;49.500;8.654;2024-03-06T00:45:28;6.72;;;4.25;;
76377;SDS011;65200;49.500;8.654;2024-03-06T00:47:55;7.00;;;6.25;;
76377;SDS011;65200;49.500;8.654;2024-03-06T00:50:23;6.00;;;4.80;;
76377;SDS011;65200;49.500;8.654;2024-03-06T00:52:51;5.72;;;5.22;;
76377;SDS011;65200;49.500;8.654;2024-03-06T00:55:18;5.35;;;3.50;;
76377;SDS011;65200;49.500;8.654;2024-03-06T00:57:46;5.53;;;3.85;;
76377;SDS011;65200;49.500;8.654;2024-03-06T01:00:14;6.55;;;3.90;;
76377;SDS011;65200;49.500;8.654;2024-03-06T01:02:44;9.77;;;4.10;;
76377;SDS011;65200;49.500;8.654;2024-03-06T01:05:11;6.63;;;3.72;;
76377;SDS011;65200;49.500;8.654;2024-03-06T01:07:39;7.40;;;4.03;;
76377;SDS011;65200;49.500;8.654;2024-03-06T01:10:07;8.27;;;3.92;;
76377;SDS011;65200;49.500;8.654;2024-03-06T01:12:34;4.75;;;4.05;;
76377;SDS011;65200;49.500;8.654;2024-03-06T01:15:02;7.32;;;4.32;;
76377;SDS011;65200;49.500;8.654;2024-03-06T01:17:30;6.82;;;5.15;;
76377;SDS011;65200;49.500;8.654;2024-03-06T01:19:59;4.22;;;3.15;;
76377;SDS011;65200;49.500;8.654;2024-03-06T01:22:27;6.68;;;5.35;;
76377;SDS011;65200;49.500;8.654;2024-03-06T01:24:55;6.97;;;5.53;;
76377;SDS011;65200;49.500;8.654;2024-03-06T01:27:22;6.97;;;3.85;;
76377;SDS011;65200;49.500;8.654;2024-03-06T01:29:50;4.78;;;3.92;;
76377;SDS011;65200;49.500;8.654;2024-03-06T01:32:18;5.95;;;3.22;;
76377;SDS011;65200;49.500;8.654;2024-03-06T01:34:45;5.40;;;3.90;;
76377;SDS011;65200;49.500;8.654;2024-03-06T01:37:14;6.25;;;4.32;;
76377;SDS011;65200;49.500;8.654;2024-03-06T01:39:43;5.88;;;3.88;;
76377;SDS011;65200;49.500;8.654;2024-03-06T01:42:11;5.45;;;4.05;;
76377;SDS011;65200;49.500;8.654;2024-03-06T01:44:38;4.63;;;3.03;;
76377;SDS011;65200;49.500;8.654;2024-03-06T01:47:06;4.65;;;3.30;;
76377;SDS011;65200;49.500;8.654;2024-03-06T01:49:34;4.38;;;3.17;;
76377;SDS011;65200;49.500;8.654;2024-03-06T01:52:11;5.13;;;3.38;;
76377;SDS011;65200;49.500;8.654;2024-03-06T01:54:44;4.07;;;3.42;;
76377;SDS011;65200;49.500;8.654;2024-03-06T01:57:13;5.22;;;3.38;;
76377;SDS011;65200;49.500;8.654;2024-03-06T01:59:44;4.07;;;3.20;;
76377;SDS011;65200;49.500;8.654;2024-03-06T02:02:12;3.85;;;2.70;;
76377;SDS011;65200;49.500;8.654;2024-03-06T02:04:40;4.72;;;2.92;;
76377;SDS011;65200;49.500;8.654;2024-03-06T02:07:08;8.10;;;5.43;;
76377;SDS011;65200;49.500;8.654;2024-03-06T02:09:36;6.40;;;3.33;;
76377;SDS011;65200;49.500;8.654;2024-03-06T02:14:35;3.67;;;3.25;;
76377;SDS011;65200;49.500;8.654;2024-03-06T02:17:03;3.72;;;3.30;;
76377;SDS011;65200;49.500;8.654;2024-03-06T02:19:38;5.43;;;3.50;;
76377;SDS011;65200;49.500;8.654;2024-03-06T02:22:08;4.25;;;3.42;;
76377;SDS011;65200;49.500;8.654;2024-03-06T02:24:36;6.10;;;3.90;;
76377;SDS011;65200;49.500;8.654;2024-03-06T02:27:04;5.25;;;3.15;;
76377;SDS011;65200;49.500;8.654;2024-03-06T02:29:31;5.28;;;3.30;;
76377;SDS011;65200;49.500;8.654;2024-03-06T02:32:00;6.05;;;4.28;;
76377;SDS011;65200;49.500;8.654;2024-03-06T02:34:28;8.25;;;3.70;;
76377;SDS011;65200;49.500;8.654;2024-03-06T02:36:56;11.73;;;3.88;;
76377;SDS011;65200;49.500;8.654;2024-03-06T02:39:25;5.90;;;2.60;;
76377;SDS011;65200;49.500;8.654;2024-03-06T02:41:53;5.13;;;3.67;;
76377;SDS011;65200;49.500;8.654;2024-03-06T02:44:20;5.63;;;3.50;;
76377;SDS011;65200;49.500;8.654;2024-03-06T02:46:48;6.38;;;3.65;;
76377;SDS011;65200;49.500;8.654;2024-03-06T02:49:16;5.45;;;3.08;;
76377;SDS011;65200;49.500;8.654;2024-03-06T02:51:45;6.18;;;3.90;;
76377;SDS011;65200;49.500;8.654;2024-03-06T02:54:12;8.13;;;4.95;;
76377;SDS011;65200;49.500;8.654;2024-03-06T02:56:42;5.65;;;4.25;;
76377;SDS011;65200;49.500;8.654;2024-03-06T02:59:09;5.93;;;4.25;;
76377;SDS011;65200;49.500;8.654;2024-03-06T03:01:37;10.60;;;4.38;;
76377;SDS011;65200;49.500;8.654;2024-03-06T03:04:05;5.50;;;4.30;;
76377;SDS011;65200;49.500;8.654;2024-03-06T03:06:34;4.28;;;3.20;;
76377;SDS011;65200;49.500;8.654;2024-03-06T03:09:01;5.15;;;4.20;;
76377;SDS011;65200;49.500;8.654;2024-03-06T03:11:30;7.80;;;4.50;;
76377;SDS011;65200;49.500;8.654;2024-03-06T03:13:59;6.60;;;4.45;;
76377;SDS011;65200;49.500;8.654;2024-03-06T03:16:27;5.82;;;4.13;;
76377;SDS011;65200;49.500;8.654;2024-03-06T03:18:56;7.13;;;4.35;;
76377;SDS011;65200;49.500;8.654;2024-03-06T03:21:23;9.20;;;4.32;;
76377;SDS011;65200;49.500;8.654;2024-03-06T03:23:51;4.38;;;3.28;;
76377;SDS011;65200;49.500;8.654;2024-03-06T03:26:18;5.18;;;4.18;;
76377;SDS011;65200;49.500;8.654;2024-03-06T03:28:46;5.90;;;4.25;;
76377;SDS011;65200;49.500;8.654;2024-03-06T03:31:15;5.75;;;3.58;;
76377;SDS011;65200;49.500;8.654;2024-03-06T03:33:42;6.32;;;4.47;;
76377;SDS011;65200;49.500;8.654;2024-03-06T03:36:10;6.32;;;3.90;;
76377;SDS011;65200;49.500;8.654;2024-03-06T03:38:38;6.22;;;3.72;;
76377;SDS011;65200;49.500;8.654;2024-03-06T03:41:07;7.75;;;5.07;;
76377;SDS011;65200;49.500;8.654;2024-03-06T03:43:35;7.47;;;4.63;;
76377;SDS011;65200;49.500;8.654;2024-03-06T03:46:03;6.20;;;4.60;;
76377;SDS011;65200;49.500;8.654;2024-03-06T03:48:34;6.88;;;3.97;;
76377;SDS011;65200;49.500;8.654;2024-03-06T03:51:04;5.70;;;4.28;;
76377;SDS011;65200;49.500;8.654;2024-03-06T03:53:33;5.07;;;3.97;;
76377;SDS011;65200;49.500;8.654;2024-03-06T03:56:01;5.75;;;4.95;;
76377;SDS011;65200;49.500;8.654;2024-03-06T03:58:29;6.32;;;4.13;;
76377;SDS011;65200;49.500;8.654;2024-03-06T04:00:57;4.82;;;3.92;;
76377;SDS011;65200;49.500;8.654;2024-03-06T04:03:26;6.90;;;4.53;;
76377;SDS011;65200;49.500;8.654;2024-03-06T04:05:55;6.00;;;4.15;;
76377;SDS011;65200;49.500;8.654;2024-03-06T04:08:22;7.38;;;4.30;;
76377;SDS011;65200;49.500;8.654;2024-03-06T04:10:50;5.78;;;4.05;;
76377;SDS011;65200;49.500;8.654;2024-03-06T04:13:18;6.43;;;4.10;;
76377;SDS011;65200;49.500;8.654;2024-03-06T04:15:46;15.82;;;4.72;;
76377;SDS011;65200;49.500;8.654;2024-03-06T04:18:14;6.45;;;4.20;;
76377;SDS011;65200;49.500;8.654;2024-03-06T04:20:42;7.18;;;6.57;;
76377;SDS011;65200;49.500;8.654;2024-03-06T04:23:11;5.78;;;4.35;;
76377;SDS011;65200;49.500;8.654;2024-03-06T04:25:38;6.88;;;4.40;;
76377;SDS011;65200;49.500;8.654;2024-03-06T04:30:34;4.53;;;3.72;;
76377;SDS011;65200;49.500;8.654;2024-03-06T04:33:02;7.85;;;4.13;;
76377;SDS011;65200;49.500;8.654;2024-03-06T04:35:30;5.05;;;3.80;;
76377;SDS011;65200;49.500;8.654;2024-03-06T04:37:58;6.70;;;4.28;;
76377;SDS011;65200;49.500;8.654;2024-03-06T04:40:29;6.28;;;4.55;;
76377;SDS011;65200;49.500;8.654;2024-03-06T04:43:00;5.78;;;4.05;;
76377;SDS011;65200;49.500;8.654;2024-03-06T04:45:28;5.80;;;4.40;;
76377;SDS011;65200;49.500;8.654;2024-03-06T04:47:56;16.70;;;5.25;;
76377;SDS011;65200;49.500;8.654;2024-03-06T04:50:24;6.57;;;3.92;;
76377;SDS011;65200;49.500;8.654;2024-03-06T04:52:53;5.20;;;4.53;;
76377;SDS011;65200;49.500;8.654;2024-03-06T04:55:22;8.38;;;4.68;;
76377;SDS011;65200;49.500;8.654;2024-03-06T04:57:52;7.25;;;4.72;;
76377;SDS011;65200;49.500;8.654;2024-03-06T05:00:20;6.28;;;3.85;;
76377;SDS011;65200;49.500;8.654;2024-03-06T05:02:48;10.30;;;4.40;;
76377;SDS011;65200;49.500;8.654;2024-03-06T05:05:34;9.77;;;4.65;;
76377;SDS011;65200;49.500;8.654;2024-03-06T05:08:19;8.38;;;4.90;;
76377;SDS011;65200;49.500;8.654;2024-03-06T05:11:04;5.25;;;4.15;;
76377;SDS011;65200;49.500;8.654;2024-03-06T05:13:51;6.85;;;4.65;;
76377;SDS011;65200;49.500;8.654;2024-03-06T05:16:36;7.57;;;4.82;;
76377;SDS011;65200;49.500;8.654;2024-03-06T05:19:21;6.05;;;4.68;;
76377;SDS011;65200;49.500;8.654;2024-03-06T05:22:06;8.82;;;3.85;;
76377;SDS011;65200;49.500;8.654;2024-03-06T05:24:51;6.90;;;4.50;;
76377;SDS011;65200;49.500;8.654;2024-03-06T05:27:37;7.10;;;3.90;;
76377;SDS011;65200;49.500;8.654;2024-03-06T05:30:23;7.45;;;4.45;;
76377;SDS011;65200;49.500;8.654;2024-03-06T05:33:09;8.20;;;5.88;;
76377;SDS011;65200;49.500;8.654;2024-03-06T05:35:54;7.30;;;5.57;;
76377;SDS011;65200;49.500;8.654;2024-03-06T05:38:39;6.70;;;3.97;;
76377;SDS011;65200;49.500;8.654;2024-03-06T05:41:25;9.82;;;5.53;;
76377;SDS011;65200;49.500;8.654;2024-03-06T05:44:10;8.65;;;4.57;;
76377;SDS011;65200;49.500;8.654;2024-03-06T05:46:58;6.25;;;5.40;;
76377;SDS011;65200;49.500;8.654;2024-03-06T05:49:44;6.60;;;5.32;;
76377;SDS011;65200;49.500;8.654;2024-03-06T05:52:29;7.35;;;4.72;;
76377;SDS011;65200;49.500;8.654;2024-03-06T05:55:14;10.15;;;7.38;;
76377;SDS011;65200;49.500;8.654;2024-03-06T05:57:59;8.60;;;4.90;;
76377;SDS011;65200;49.500;8.654;2024-03-06T06:00:40;5.65;;;4.32;;
76377;SDS011;65200;49.500;8.654;2024-03-06T06:03:09;11.38;;;5.03;;
76377;SDS011;65200;49.500;8.654;2024-03-06T06:05:38;12.43;;;5.50;;
76377;SDS011;65200;49.500;8.654;2024-03-06T06:08:07;12.93;;;4.97;;
76377;SDS011;65200;49.500;8.654;2024-03-06T06:10:35;16.48;;;5.55;;
76377;SDS011;65200;49.500;8.654;2024-03-06T06:13:02;9.50;;;5.05;;
76377;SDS011;65200;49.500;8.654;2024-03-06T06:15:31;9.27;;;5.38;;
76377;SDS011;65200;49.500;8.654;2024-03-06T06:17:59;7.75;;;4.90;;
76377;SDS011;65200;49.500;8.654;2024-03-06T06:20:28;6.78;;;5.53;;
76377;SDS011;65200;49.500;8.654;2024-03-06T06:22:56;7.82;;;5.38;;
76377;SDS011;65200;49.500;8.654;2024-03-06T06:25:24;6.97;;;4.47;;
76377;SDS011;65200;49.500;8.654;2024-03-06T06:27:51;9.80;;;5.10;;
76377;SDS011;65200;49.500;8.654;2024-03-06T06:30:19;10.45;;;5.50;;
76377;SDS011;65200;49.500;8.654;2024-03-06T06:32:47;11.57;;;7.38;;
76377;SDS011;65200;49.500;8.654;2024-03-06T06:35:14;8.35;;;5.85;;
76377;SDS011;65200;49.500;8.654;2024-03-06T06:37:44;8.98;;;5.68;;
76377;SDS011;65200;49.500;8.654;2024-03-06T06:40:12;6.10;;;4.55;;
76377;SDS011;65200;49.500;8.654;2024-03-06T06:42:43;7.50;;;4.63;;
76377;SDS011;65200;49.500;8.654;2024-03-06T06:45:11;6.45;;;4.20;;
76377;SDS011;65200;49.500;8.654;2024-03-06T06:47:39;7.55;;;4.85;;
76377;SDS011;65200;49.500;8.654;2024-03-06T06:50:07;5.90;;;4.05;;
76377;SDS011;65200;49.500;8.654;2024-03-06T06:52:35;5.57;;;4.15;;
76377;SDS011;65200;49.500;8.654;2024-03-06T06:55:04;13.07;;;5.40;;
76377;SDS011;65200;49.500;8.654;2024-03-06T06:57:32;6.85;;;4.65;;
76377;SDS011;65200;49.500;8.654;2024-03-06T07:00:00;6.47;;;4.32;;
76377;SDS011;65200;49.500;8.654;2024-03-06T07:02:32;9.48;;;5.15;;
76377;SDS011;65200;49.500;8.654;2024-03-06T07:05:00;6.20;;;3.95;;
76377;SDS011;65200;49.500;8.654;2024-03-06T07:07:27;7.07;;;5.50;;
76377;SDS011;65200;49.500;8.654;2024-03-06T07:09:55;6.07;;;4.03;;
76377;SDS011;65200;49.500;8.654;2024-03-06T07:12:24;6.05;;;4.28;;
76377;SDS011;65200;49.500;8.654;2024-03-06T07:14:51;6.75;;;3.75;;
76377;SDS011;65200;49.500;8.654;2024-03-06T07:17:19;7.45;;;4.57;;
76377;SDS011;65200;49.500;8.654;2024-03-06T07:19:46;5.13;;;4.50;;
76377;SDS011;65200;49.500;8.654;2024-03-06T07:22:14;7.07;;;4.93;;
76377;SDS011;65200;49.500;8.654;2024-03-06T07:24:42;8.00;;;5.25;;
76377;SDS011;65200;49.500;8.654;2024-03-06T07:27:10;10.75;;;7.38;;
76377;SDS011;65200;49.500;8.654;2024-03-06T07:29:39;8.27;;;6.45;;
76377;SDS011;65200;49.500;8.654;2024-03-06T07:32:07;11.30;;;6.63;;
76377;SDS011;65200;49.500;8.654;2024-03-06T07:34:34;10.18;;;6.88;;
76377;SDS011;65200;49.500;8.654;2024-03-06T07:37:02;8.48;;;6.03;;
76377;SDS011;65200;49.500;8.654;2024-03-06T07:39:31;7.57;;;5.60;;
76377;SDS011;65200;49.500;8.654;2024-03-06T07:42:00;10.95;;;5.88;;
76377;SDS011;65200;49.500;8.654;2024-03-06T07:44:28;9.40;;;6.97;;
76377;SDS011;65200;49.500;8.654;2024-03-06T07:46:57;13.82;;;7.22;;
76377;SDS011;65200;49.500;8.654;2024-03-06T07:49:25;10.43;;;6.70;;
76377;SDS011;65200;49.500;8.654;2024-03-06T07:51:52;8.98;;;6.07;;
76377;SDS011;65200;49.500;8.654;2024-03-06T07:54:20;8.07;;;6.80;;
76377;SDS011;65200;49.500;8.654;2024-03-06T07:56:48;11.88;;;7.68;;
76377;SDS011;65200;49.500;8.654;2024-03-06T07:59:16;11.88;;;8.35;;
76377;SDS011;65200;49.500;8.654;2024-03-06T08:01:44;10.50;;;7.05;;
76377;SDS011;65200;49.500;8.654;2024-03-06T08:04:13;13.30;;;7.00;;
76377;SDS011;65200;49.500;8.654;2024-03-06T08:06:41;9.20;;;6.03;;
76377;SDS011;65200;49.500;8.654;2024-03-06T08:09:08;11.65;;;7.95;;
76377;SDS011;65200;49.500;8.654;2024-03-06T08:11:37;13.15;;;8.50;;
76377;SDS011;65200;49.500;8.654;2024-03-06T08:14:05;13.27;;;10.15;;
76377;SDS011;65200;49.500;8.654;2024-03-06T08:16:33;12.05;;;7.30;;
76377;SDS011;65200;49.500;8.654;2024-03-06T08:19:02;14.43;;;6.60;;
76377;SDS011;65200;49.500;8.654;2024-03-06T08:21:32;10.43;;;6.95;;
76377;SDS011;65200;49.500;8.654;2024-03-06T08:23:59;9.95;;;6.13;;
76377;SDS011;65200;49.500;8.654;2024-03-06T08:26:27;8.75;;;5.82;;
76377;SDS011;65200;49.500;8.654;2024-03-06T08:28:55;11.55;;;6.80;;
76377;SDS011;65200;49.500;8.654;2024-03-06T08:31:22;8.95;;;6.30;;
76377;SDS011;65200;49.500;8.654;2024-03-06T08:33:51;19.10;;;7.03;;
76377;SDS011;65200;49.500;8.654;2024-03-06T08:36:19;10.48;;;6.88;;
76377;SDS011;65200;49.500;8.654;2024-03-06T08:38:49;12.93;;;7.25;;
76377;SDS011;65200;49.500;8.654;2024-03-06T08:41:17;14.18;;;7.80;;
76377;SDS011;65200;49.500;8.654;2024-03-06T08:43:46;7.80;;;6.00;;
76377;SDS011;65200;49.500;8.654;2024-03-06T08:46:14;8.85;;;6.35;;
76377;SDS011;65200;49.500;8.654;2024-03-06T08:48:43;10.15;;;7.28;;
76377;SDS011;65200;49.500;8.654;2024-03-06T08:51:10;11.73;;;7.57;;
76377;SDS011;65200;49.500;8.654;2024-03-06T08:53:39;12.35;;;7.53;;
76377;SDS011;65200;49.500;8.654;2024-03-06T08:56:08;11.90;;;7.57;;
76377;SDS011;65200;49.500;8.654;2024-03-06T08:58:35;15.13;;;8.10;;
76377;SDS011;65200;49.500;8.654;2024-03-06T09:01:03;9.82;;;7.00;;
76377;SDS011;65200;49.500;8.654;2024-03-06T09:03:31;11.73;;;6.88;;
76377;SDS011;65200;49.500;8.654;2024-03-06T09:05:58;9.63;;;7.15;;
76377;SDS011;65200;49.500;8.654;2024-03-06T09:08:26;9.73;;;7.03;;
76377;SDS011;65200;49.500;8.654;2024-03-06T09:10:54;9.90;;;6.45;;
76377;SDS011;65200;49.500;8.654;2024-03-06T09:13:26;8.18;;;6.15;;
76377;SDS011;65200;49.500;8.654;2024-03-06T09:15:54;10.30;;;6.13;;
76377;SDS011;65200;49.500;8.654;2024-03-06T09:18:21;11.82;;;5.88;;
76377;SDS011;65200;49.500;8.654;2024-03-06T09:20:49;9.45;;;6.15;;
76377;SDS011;65200;49.500;8.654;2024-03-06T09:23:17;11.13;;;6.07;;
76377;SDS011;65200;49.500;8.654;2024-03-06T09:25:44;9.55;;;6.00;;
76377;SDS011;65200;49.500;8.654;2024-03-06T09:28:13;11.25;;;6.25;;
76377;SDS011;65200;49.500;8.654;2024-03-06T09:30:42;8.18;;;7.00;;
76377;SDS011;65200;49.500;8.654;2024-03-06T09:33:09;9.27;;;6.47;;
76377;SDS011;65200;49.500;8.654;2024-03-06T09:35:37;9.38;;;7.03;;
76377;SDS011;65200;49.500;8.654;2024-03-06T09:38:11;10.65;;;6.82;;
76377;SDS011;65200;49.500;8.654;2024-03-06T09:40:42;7.65;;;6.32;;
76377;SDS011;65200;49.500;8.654;2024-03-06T09:43:10;13.10;;;7.38;;
76377;SDS011;65200;49.500;8.654;2024-03-06T09:45:37;11.30;;;8.02;;
76377;SDS011;65200;49.500;8.654;2024-03-06T09:48:07;10.68;;;6.57;;
76377;SDS011;65200;49.500;8.654;2024-03-06T09:50:36;17.13;;;7.85;;
76377;SDS011;65200;49.500;8.654;2024-03-06T09:53:08;9.20;;;7.90;;
76377;SDS011;65200;49.500;8.654;2024-03-06T09:55:40;10.45;;;6.65;;
76377;SDS011;65200;49.500;8.654;2024-03-06T09:58:07;9.93;;;7.55;;
76377;SDS011;65200;49.500;8.654;2024-03-06T10:00:35;12.70;;;6.95;;
76377;SDS011;65200;49.500;8.654;2024-03-06T10:03:03;12.63;;;6.78;;
76377;SDS011;65200;49.500;8.654;2024-03-06T10:05:35;13.23;;;6.95;;
76377;SDS011;65200;49.500;8.654;2024-03-06T10:08:03;10.32;;;6.55;;
76377;SDS011;65200;49.500;8.654;2024-03-06T10:10:31;9.65;;;6.57;;
76377;SDS011;65200;49.500;8.654;2024-03-06T10:13:00;9.18;;;6.43;;
76377;SDS011;65200;49.500;8.654;2024-03-06T10:15:27;13.63;;;6.63;;
76377;SDS011;65200;49.500;8.654;2024-03-06T10:18:11;7.25;;;6.32;;
76377;SDS011;65200;49.500;8.654;2024-03-06T10:20:42;9.23;;;6.00;;
76377;SDS011;65200;49.500;8.654;2024-03-06T10:23:10;8.55;;;6.60;;
76377;SDS011;65200;49.500;8.654;2024-03-06T10:25:39;9.85;;;6.78;;
76377;SDS011;65200;49.500;8.654;2024-03-06T10:28:07;13.45;;;7.38;;
76377;SDS011;65200;49.500;8.654;2024-03-06T10:30:35;10.80;;;7.68;;
76377;SDS011;65200;49.500;8.654;2024-03-06T10:33:08;10.40;;;6.50;;
76377;SDS011;65200;49.500;8.654;2024-03-06T10:35:36;14.05;;;7.93;;
76377;SDS011;65200;49.500;8.654;2024-03-06T10:38:06;8.90;;;6.40;;
76377;SDS011;65200;49.500;8.654;2024-03-06T10:40:36;12.27;;;7.28;;
76377;SDS011;65200;49.500;8.654;2024-03-06T10:43:05;9.55;;;6.60;;
76377;SDS011;65200;49.500;8.654;2024-03-06T10:45:37;11.57;;;7.40;;
76377;SDS011;65200;49.500;8.654;2024-03-06T10:48:08;11.43;;;7.05;;
76377;SDS011;65200;49.500;8.654;2024-03-06T10:50:38;10.10;;;7.22;;
76377;SDS011;65200;49.500;8.654;2024-03-06T10:53:09;12.40;;;8.05;;
76377;SDS011;65200;49.500;8.654;2024-03-06T10:55:38;12.07;;;7.15;;
76377;SDS011;65200;49.500;8.654;2024-03-06T10:58:06;10.05;;;7.00;;
76377;SDS011;65200;49.500;8.654;2024-03-06T11:00:36;11.40;;;7.30;;
76377;SDS011;65200;49.500;8.654;2024-03-06T11:03:06;13.63;;;6.88;;
76377;SDS011;65200;49.500;8.654;2024-03-06T11:05:35;11.07;;;7.15;;
76377;SDS011;65200;49.500;8.654;2024-03-06T11:08:05;9.68;;;7.15;;
76377;SDS011;65200;49.500;8.654;2024-03-06T11:10:36;11.23;;;7.70;;
76377;SDS011;65200;49.500;8.654;2024-03-06T11:13:08;13.75;;;9.50;;
76377;SDS011;65200;49.500;8.654;2024-03-06T11:15:48;13.40;;;8.00;;
76377;SDS011;65200;49.500;8.654;2024-03-06T11:21:29;14.27;;;8.68;;
76377;SDS011;65200;49.500;8.654;2024-03-06T11:26:43;16.55;;;9.27;;
76377;SDS011;65200;49.500;8.654;2024-03-06T11:29:15;12.45;;;8.32;;
76377;SDS011;65200;49.500;8.654;2024-03-06T11:32:00;12.82;;;8.82;;
76377;SDS011;65200;49.500;8.654;2024-03-06T11:34:29;12.75;;;8.00;;
76377;SDS011;65200;49.500;8.654;2024-03-06T11:36:57;12.30;;;7.97;;
76377;SDS011;65200;49.500;8.654;2024-03-06T11:39:28;13.25;;;7.65;;
76377;SDS011;65200;49.500;8.654;2024-03-06T11:41:58;13.70;;;8.18;;
76377;SDS011;65200;49.500;8.654;2024-03-06T11:44:31;12.93;;;8.73;;
76377;SDS011;65200;49.500;8.654;2024-03-06T11:47:00;13.48;;;8.93;;
76377;SDS011;65200;49.500;8.654;2024-03-06T11:49:28;12.65;;;7.57;;
76377;SDS011;65200;49.500;8.654;2024-03-06T11:52:00;12.98;;;9.32;;
76377;SDS011;65200;49.500;8.654;2024-03-06T11:54:29;14.90;;;9.48;;
76377;SDS011;65200;49.500;8.654;2024-03-06T11:56:59;11.60;;;8.25;;
76377;SDS011;65200;49.500;8.654;2024-03-06T11:59:28;16.95;;;8.20;;
76377;SDS011;65200;49.500;8.654;2024-03-06T12:01:57;16.55;;;9.02;;
76377;SDS011;65200;49.500;8.654;2024-03-06T12:04:28;13.77;;;8.18;;
76377;SDS011;65200;49.500;8.654;2024-03-06T12:06:57;12.18;;;8.65;;
76377;SDS011;65200;49.500;8.654;2024-03-06T12:09:26;13.63;;;8.63;;
76377;SDS011;65200;49.500;8.654;2024-03-06T12:14:24;14.35;;;7.95;;
76377;SDS011;65200;49.500;8.654;2024-03-06T12:16:56;13.57;;;8.88;;
76377;SDS011;65200;49.500;8.654;2024-03-06T12:19:25;13.63;;;9.45;;
76377;SDS011;65200;49.500;8.654;2024-03-06T12:21:53;14.60;;;8.93;;
76377;SDS011;65200;49.500;8.654;2024-03-06T12:24:21;15.45;;;9.45;;
76377;SDS011;65200;49.500;8.654;2024-03-06T12:26:57;13.27;;;9.80;;
76377;SDS011;65200;49.500;8.654;2024-03-06T12:29:27;13.23;;;8.10;;
76377;SDS011;65200;49.500;8.654;2024-03-06T12:31:56;14.40;;;8.95;;
76377;SDS011;65200;49.500;8.654;2024-03-06T12:34:24;15.73;;;9.82;;
76377;SDS011;65200;49.500;8.654;2024-03-06T12:36:52;17.08;;;10.05;;
76377;SDS011;65200;49.500;8.654;2024-03-06T12:39:20;16.23;;;8.95;;
76377;SDS011;65200;49.500;8.654;2024-03-06T12:41:49;16.27;;;9.35;;
76377;SDS011;65200;49.500;8.654;2024-03-06T12:44:19;15.05;;;9.32;;
76377;SDS011;65200;49.500;8.654;2024-03-06T12:46:48;15.07;;;9.07;;
76377;SDS011;65200;49.500;8.654;2024-03-06T12:49:16;13.48;;;8.45;;
76377;SDS011;65200;49.500;8.654;2024-03-06T12:51:46;14.32;;;8.63;;
76377;SDS011;65200;49.500;8.654;2024-03-06T12:54:13;14.55;;;9.43;;
76377;SDS011;65200;49.500;8.654;2024-03-06T12:56:41;13.77;;;8.93;;
76377;SDS011;65200;49.500;8.654;2024-03-06T12:59:09;12.85;;;8.32;;
76377;SDS011;65200;49.500;8.654;2024-03-06T13:01:37;13.45;;;8.93;;
76377;SDS011;65200;49.500;8.654;2024-03-06T13:04:06;14.95;;;9.70;;
76377;SDS011;65200;49.500;8.654;2024-03-06T13:06:36;11.75;;;7.85;;
76377;SDS011;65200;49.500;8.654;2024-03-06T13:09:04;11.57;;;8.07;;
76377;SDS011;65200;49.500;8.654;2024-03-06T13:11:31;13.05;;;7.72;;
76377;SDS011;65200;49.500;8.654;2024-03-06T13:13:59;12.68;;;7.93;;
76377;SDS011;65200;49.500;8.654;2024-03-06T13:16:27;11.75;;;7.68;;
76377;SDS011;65200;49.500;8.654;2024-03-06T13:18:55;11.38;;;7.22;;
76377;SDS011;65200;49.500;8.654;2024-03-06T13:21:24;13.50;;;7.60;;
76377;SDS011;65200;49.500;8.654;2024-03-06T13:23:52;12.85;;;7.95;;
76377;SDS011;65200;49.500;8.654;2024-03-06T13:26:20;12.90;;;7.70;;
76377;SDS011;65200;49.500;8.654;2024-03-06T13:28:48;13.32;;;7.65;;
76377;SDS011;65200;49.500;8.654;2024-03-06T13:31:15;12.15;;;7.70;;
76377;SDS011;65200;49.500;8.654;2024-03-06T13:33:43;13.48;;;8.50;;
76377;SDS011;65200;49.500;8.654;2024-03-06T13:36:10;13.20;;;8.63;;
76377;SDS011;65200;49.500;8.654;2024-03-06T13:38:39;10.65;;;6.60;;
76377;SDS011;65200;49.500;8.654;2024-03-06T13:41:07;13.65;;;8.02;;
76377;SDS011;65200;49.500;8.654;2024-03-06T13:43:35;12.60;;;7.90;;
76377;SDS011;65200;49.500;8.654;2024-03-06T13:46:02;13.23;;;8.65;;
76377;SDS011;65200;49.500;8.654;2024-03-06T13:48:30;14.30;;;8.10;;
76377;SDS011;65200;49.500;8.654;2024-03-06T13:50:58;13.90;;;8.32;;
76377;SDS011;65200;49.500;8.654;2024-03-06T13:53:25;13.25;;;8.48;;
76377;SDS011;65200;49.500;8.654;2024-03-06T13:55:54;12.60;;;8.73;;
76377;SDS011;65200;49.500;8.654;2024-03-06T13:58:22;10.93;;;7.60;;
76377;SDS011;65200;49.500;8.654;2024-03-06T14:00:49;11.80;;;8.38;;
76377;SDS011;65200;49.500;8.654;2024-03-06T14:03:18;17.02;;;10.98;;
76377;SDS011;65200;49.500;8.654;2024-03-06T14:05:45;15.65;;;9.02;;
76377;SDS011;65200;49.500;8.654;2024-03-06T14:08:13;12.95;;;8.95;;
76377;SDS011;65200;49.500;8.654;2024-03-06T14:10:42;14.60;;;9.32;;
76377;SDS011;65200;49.500;8.654;2024-03-06T14:13:14;16.70;;;11.95;;
76377;SDS011;65200;49.500;8.654;2024-03-06T14:15:42;14.88;;;9.70;;
76377;SDS011;65200;49.500;8.654;2024-03-06T14:18:10;16.88;;;10.02;;
76377;SDS011;65200;49.500;8.654;2024-03-06T14:20:47;17.20;;;10.30;;
76377;SDS011;65200;49.500;8.654;2024-03-06T14:23:15;14.80;;;9.73;;
76377;SDS011;65200;49.500;8.654;2024-03-06T14:25:43;15.63;;;10.18;;
76377;SDS011;65200;49.500;8.654;2024-03-06T14:28:11;16.25;;;9.93;;
76377;SDS011;65200;49.500;8.654;2024-03-06T14:30:40;11.57;;;7.95;;
76377;SDS011;65200;49.500;8.654;2024-03-06T14:33:08;14.07;;;9.45;;
76377;SDS011;65200;49.500;8.654;2024-03-06T14:35:36;15.07;;;8.20;;
76377;SDS011;65200;49.500;8.654;2024-03-06T14:38:04;20.88;;;9.95;;
76377;SDS011;65200;49.500;8.654;2024-03-06T14:40:32;16.13;;;9.02;;
76377;SDS011;65200;49.500;8.654;2024-03-06T14:43:00;13.80;;;8.25;;
76377;SDS011;65200;49.500;8.654;2024-03-06T14:45:28;16.40;;;9.05;;
76377;SDS011;65200;49.500;8.654;2024-03-06T14:50:25;16.95;;;8.73;;
76377;SDS011;65200;49.500;8.654;2024-03-06T14:52:52;17.27;;;9.07;;
76377;SDS011;65200;49.500;8.654;2024-03-06T14:55:20;16.50;;;11.30;;
76377;SDS011;65200;49.500;8.654;2024-03-06T14:57:47;15.00;;;9.73;;
76377;SDS011;65200;49.500;8.654;2024-03-06T15:00:15;16.95;;;10.05;;
76377;SDS011;65200;49.500;8.654;2024-03-06T15:02:48;16.35;;;10.15;;
76377;SDS011;65200;49.500;8.654;2024-03-06T15:05:17;18.23;;;10.20;;
76377;SDS011;65200;49.500;8.654;2024-03-06T15:07:45;18.33;;;10.05;;
76377;SDS011;65200;49.500;8.654;2024-03-06T15:10:12;14.85;;;8.20;;